sensor_id;sensor_type;location;lat;lon;timestamp;pressure;altitude;pressure_sealevel;temperature;humidity
43934;BME280;59081;42.706;23.306;2023-03-21T00:01:17;94869.56;;;10.53;54.61
43934;BME280;59081;42.706;23.306;2023-03-21T00:03:43;94833.81;;;10.15;54.98
43934;BME280;59081;42.706;23.306;2023-03-21T00:06:14;94950.38;;;10.84;55.29
43934;BME280;59081;42.706;23.306;2023-03-21T00:08:40;95042.97;;;11.41;55.60
43934;BME280;59081;42.706;23.306;2023-03-21T00:11:08;94951.28;;;10.68;55.90
43934;BME280;59081;42.706;23.306;2023-03-21T00:13:37;94868.47;;;10.12;56.46
43934;BME280;59081;42.706;23.306;2023-03-21T00:18:34;94867.34;;;9.59;58.29
43934;BME280;59081;42.706;23.306;2023-03-21T00:21:07;95005.59;;;10.68;57.74
43934;BME280;59081;42.706;23.306;2023-03-21T00:23:33;94976.09;;;10.56;57.71
43934;BME280;59081;42.706;23.306;2023-03-21T00:25:59;94867.41;;;9.84;57.71
43934;BME280;59081;42.706;23.306;2023-03-21T00:28:26;94870.69;;;9.79;57.99
43934;BME280;59081;42.706;23.306;2023-03-21T00:30:57;94867.53;;;9.39;59.10
43934;BME280;59081;42.706;23.306;2023-03-21T00:33:23;95091.31;;;10.95;58.79
43934;BME280;59081;42.706;23.306;2023-03-21T00:35:49;94805.22;;;8.94;59.56
43934;BME280;59081;42.706;23.306;2023-03-21T00:38:17;95008.00;;;10.28;59.23
43934;BME280;59081;42.706;23.306;2023-03-21T00:40:43;94887.91;;;9.54;59.12
43934;BME280;59081;42.706;23.306;2023-03-21T00:43:11;95011.75;;;10.46;58.98
43934;BME280;59081;42.706;23.306;2023-03-21T00:45:38;94873.88;;;9.65;58.75
43934;BME280;59081;42.706;23.306;2023-03-21T00:48:04;94854.72;;;9.61;58.56
43934;BME280;59081;42.706;23.306;2023-03-21T00:50:30;94847.13;;;9.65;58.52
43934;BME280;59081;42.706;23.306;2023-03-21T00:52:57;94943.47;;;10.29;58.19
43934;BME280;59081;42.706;23.306;2023-03-21T00:55:25;94964.50;;;10.48;57.83
43934;BME280;59081;42.706;23.306;2023-03-21T00:57:53;94840.75;;;9.68;57.99
43934;BME280;59081;42.706;23.306;2023-03-21T01:00:20;94875.22;;;9.86;57.74
43934;BME280;59081;42.706;23.306;2023-03-21T01:02:50;94882.59;;;10.01;57.73
43934;BME280;59081;42.706;23.306;2023-03-21T01:05:26;95081.59;;;11.29;57.64
43934;BME280;59081;42.706;23.306;2023-03-21T01:08:28;94847.47;;;9.80;57.69
43934;BME280;59081;42.706;23.306;2023-03-21T01:11:01;94979.25;;;10.67;57.68
43934;BME280;59081;42.706;23.306;2023-03-21T01:13:27;94889.94;;;10.04;57.97
43934;BME280;59081;42.706;23.306;2023-03-21T01:15:55;94944.34;;;10.51;57.74
43934;BME280;59081;42.706;23.306;2023-03-21T01:18:25;94856.72;;;9.86;57.83
43934;BME280;59081;42.706;23.306;2023-03-21T01:20:52;95017.50;;;10.90;57.75
43934;BME280;59081;42.706;23.306;2023-03-21T01:23:18;94848.44;;;9.73;57.85
43934;BME280;59081;42.706;23.306;2023-03-21T01:25:49;94982.03;;;10.54;57.98
43934;BME280;59081;42.706;23.306;2023-03-21T01:28:16;94842.16;;;9.60;58.23
43934;BME280;59081;42.706;23.306;2023-03-21T01:30:49;95067.75;;;11.07;58.37
43934;BME280;59081;42.706;23.306;2023-03-21T01:33:18;95076.00;;;10.81;58.83
43934;BME280;59081;42.706;23.306;2023-03-21T01:35:49;94830.47;;;8.89;60.05
43934;BME280;59081;42.706;23.306;2023-03-21T01:38:15;94855.84;;;8.81;60.63
43934;BME280;59081;42.706;23.306;2023-03-21T01:40:45;94855.91;;;8.48;61.77
43934;BME280;59081;42.706;23.306;2023-03-21T01:43:51;94849.69;;;8.60;61.63
43934;BME280;59081;42.706;23.306;2023-03-21T01:46:37;95061.91;;;10.12;61.33
43934;BME280;59081;42.706;23.306;2023-03-21T01:49:08;94934.25;;;9.27;60.89
43934;BME280;59081;42.706;23.306;2023-03-21T01:51:38;94851.03;;;8.68;61.17
43934;BME280;59081;42.706;23.306;2023-03-21T01:54:09;94839.16;;;8.59;61.42
43934;BME280;59081;42.706;23.306;2023-03-21T01:56:39;94970.31;;;9.58;61.14
43934;BME280;59081;42.706;23.306;2023-03-21T01:59:30;94849.44;;;8.84;60.52
43934;BME280;59081;42.706;23.306;2023-03-21T02:02:03;94820.66;;;8.76;60.51
43934;BME280;59081;42.706;23.306;2023-03-21T02:04:44;94807.34;;;8.74;60.45
43934;BME280;59081;42.706;23.306;2023-03-21T02:07:18;94844.63;;;8.88;60.73
43934;BME280;59081;42.706;23.306;2023-03-21T02:09:51;94854.66;;;8.94;60.65
43934;BME280;59081;42.706;23.306;2023-03-21T02:12:20;95062.63;;;10.42;60.41
43934;BME280;59081;42.706;23.306;2023-03-21T02:14:53;94851.28;;;9.03;60.09
43934;BME280;59081;42.706;23.306;2023-03-21T02:23:16;94985.63;;;10.13;59.71
43934;BME280;59081;42.706;23.306;2023-03-21T02:28:46;94896.28;;;9.51;59.72
43934;BME280;59081;42.706;23.306;2023-03-21T02:39:46;94832.25;;;8.67;61.13
43934;BME280;59081;42.706;23.306;2023-03-21T02:45:14;94987.09;;;9.76;61.26
43934;BME280;59081;42.706;23.306;2023-03-21T02:47:48;94887.06;;;9.16;61.38
43934;BME280;59081;42.706;23.306;2023-03-21T02:50:23;94829.56;;;8.80;61.38
43934;BME280;59081;42.706;23.306;2023-03-21T02:52:53;94821.44;;;8.76;61.61
43934;BME280;59081;42.706;23.306;2023-03-21T02:55:32;94815.16;;;8.76;61.30
43934;BME280;59081;42.706;23.306;2023-03-21T02:58:01;95003.50;;;9.92;61.48
43934;BME280;59081;42.706;23.306;2023-03-21T03:00:31;94887.59;;;9.11;61.58
43934;BME280;59081;42.706;23.306;2023-03-21T03:03:00;94834.03;;;8.73;61.61
43934;BME280;59081;42.706;23.306;2023-03-21T03:05:28;94830.00;;;8.78;61.46
43934;BME280;59081;42.706;23.306;2023-03-21T03:16:37;94827.88;;;8.69;62.27
43934;BME280;59081;42.706;23.306;2023-03-21T03:19:10;94937.78;;;9.27;62.22
43934;BME280;59081;42.706;23.306;2023-03-21T03:21:48;94829.78;;;8.56;62.44
43934;BME280;59081;42.706;23.306;2023-03-21T03:24:23;94821.41;;;8.47;62.53
43934;BME280;59081;42.706;23.306;2023-03-21T03:29:27;94879.19;;;8.72;62.79
43934;BME280;59081;42.706;23.306;2023-03-21T03:31:59;95056.22;;;9.91;63.16
43934;BME280;59081;42.706;23.306;2023-03-21T03:34:29;95054.13;;;9.82;63.23
43934;BME280;59081;42.706;23.306;2023-03-21T03:37:06;94821.50;;;8.11;63.73
43934;BME280;59081;42.706;23.306;2023-03-21T03:40:22;94817.13;;;7.81;64.48
43934;BME280;59081;42.706;23.306;2023-03-21T03:42:26;94820.47;;;7.89;64.82
43934;BME280;59081;42.706;23.306;2023-03-21T03:44:54;94998.63;;;8.97;65.02
43934;BME280;59081;42.706;23.306;2023-03-21T03:49:55;94975.13;;;8.80;65.50
43934;BME280;59081;42.706;23.306;2023-03-21T03:52:34;94835.41;;;7.16;67.29
43934;BME280;59081;42.706;23.306;2023-03-21T03:55:09;94977.19;;;8.07;67.95
43934;BME280;59081;42.706;23.306;2023-03-21T03:57:39;94924.00;;;7.85;67.47
43934;BME280;59081;42.706;23.306;2023-03-21T04:00:10;94935.25;;;7.90;67.48
43934;BME280;59081;42.706;23.306;2023-03-21T04:02:40;94903.91;;;7.72;67.30
43934;BME280;59081;42.706;23.306;2023-03-21T04:05:18;94923.16;;;7.88;67.08
43934;BME280;59081;42.706;23.306;2023-03-21T04:07:47;94917.09;;;7.96;67.04
43934;BME280;59081;42.706;23.306;2023-03-21T04:10:19;94863.28;;;7.66;66.50
43934;BME280;59081;42.706;23.306;2023-03-21T04:12:48;94874.88;;;7.74;66.26
43934;BME280;59081;42.706;23.306;2023-03-21T04:15:16;94850.63;;;7.73;65.96
43934;BME280;59081;42.706;23.306;2023-03-21T04:17:43;94919.25;;;8.21;65.69
43934;BME280;59081;42.706;23.306;2023-03-21T04:20:10;95036.41;;;9.09;65.15
43934;BME280;59081;42.706;23.306;2023-03-21T04:22:36;94948.19;;;8.58;65.10
43934;BME280;59081;42.706;23.306;2023-03-21T04:25:02;94823.13;;;7.76;65.05
43934;BME280;59081;42.706;23.306;2023-03-21T04:27:30;94832.16;;;7.93;64.92
43934;BME280;59081;42.706;23.306;2023-03-21T04:29:57;94878.84;;;8.22;64.38
43934;BME280;59081;42.706;23.306;2023-03-21T04:32:23;94899.97;;;8.41;64.38
43934;BME280;59081;42.706;23.306;2023-03-21T04:34:49;94823.22;;;7.89;64.31
43934;BME280;59081;42.706;23.306;2023-03-21T04:37:19;94819.44;;;7.83;64.77
43934;BME280;59081;42.706;23.306;2023-03-21T04:39:49;94925.28;;;8.32;65.16
43934;BME280;59081;42.706;23.306;2023-03-21T04:42:16;94820.63;;;7.65;65.46
43934;BME280;59081;42.706;23.306;2023-03-21T04:44:46;94909.88;;;8.19;65.19
43934;BME280;59081;42.706;23.306;2023-03-21T04:47:13;94873.53;;;7.98;65.55
43934;BME280;59081;42.706;23.306;2023-03-21T04:49:41;95002.06;;;8.85;65.64
43934;BME280;59081;42.706;23.306;2023-03-21T04:52:09;94861.88;;;7.94;65.34
43934;BME280;59081;42.706;23.306;2023-03-21T04:54:35;94835.03;;;7.69;65.48
43934;BME280;59081;42.706;23.306;2023-03-21T04:57:03;94826.28;;;7.58;65.96
43934;BME280;59081;42.706;23.306;2023-03-21T04:59:29;94943.72;;;8.32;65.99
43934;BME280;59081;42.706;23.306;2023-03-21T05:01:58;94821.31;;;7.53;65.96
43934;BME280;59081;42.706;23.306;2023-03-21T05:04:25;94796.28;;;7.15;66.20
43934;BME280;59081;42.706;23.306;2023-03-21T05:06:54;94862.97;;;7.45;66.72
43934;BME280;59081;42.706;23.306;2023-03-21T05:09:23;94910.97;;;7.53;68.01
43934;BME280;59081;42.706;23.306;2023-03-21T05:11:49;94863.59;;;6.96;68.95
43934;BME280;59081;42.706;23.306;2023-03-21T05:14:19;94977.03;;;7.58;69.12
43934;BME280;59081;42.706;23.306;2023-03-21T05:16:51;94844.28;;;6.84;68.57
43934;BME280;59081;42.706;23.306;2023-03-21T05:19:27;94954.66;;;7.80;67.90
43934;BME280;59081;42.706;23.306;2023-03-21T05:22:04;94843.56;;;7.19;67.27
43934;BME280;59081;42.706;23.306;2023-03-21T05:24:36;94845.47;;;7.22;66.76
43934;BME280;59081;42.706;23.306;2023-03-21T05:27:04;95072.94;;;8.73;67.31
43934;BME280;59081;42.706;23.306;2023-03-21T05:29:30;94833.75;;;7.22;66.96
43934;BME280;59081;42.706;23.306;2023-03-21T05:31:57;94827.75;;;7.27;65.99
43934;BME280;59081;42.706;23.306;2023-03-21T05:34:26;94845.69;;;7.48;65.58
43934;BME280;59081;42.706;23.306;2023-03-21T05:36:53;94984.91;;;8.48;65.23
43934;BME280;59081;42.706;23.306;2023-03-21T05:39:24;94858.22;;;7.65;64.70
43934;BME280;59081;42.706;23.306;2023-03-21T05:41:53;94862.66;;;7.95;70.72
43934;BME280;59081;42.706;23.306;2023-03-21T05:44:24;94803.41;;;7.81;69.90
43934;BME280;59081;42.706;23.306;2023-03-21T05:46:55;95068.09;;;9.59;66.16
43934;BME280;59081;42.706;23.306;2023-03-21T05:49:27;94873.56;;;8.31;63.27
43934;BME280;59081;42.706;23.306;2023-03-21T05:51:55;95057.25;;;9.68;62.57
43934;BME280;59081;42.706;23.306;2023-03-21T05:54:21;94794.34;;;7.84;62.69
43934;BME280;59081;42.706;23.306;2023-03-21T05:56:49;95061.22;;;9.67;62.79
43934;BME280;59081;42.706;23.306;2023-03-21T05:59:15;95041.19;;;9.66;62.55
43934;BME280;59081;42.706;23.306;2023-03-21T06:01:41;95002.97;;;9.56;68.87
43934;BME280;59081;42.706;23.306;2023-03-21T06:04:14;94808.22;;;8.42;62.41
43934;BME280;59081;42.706;23.306;2023-03-21T06:06:49;94792.69;;;8.35;61.67
43934;BME280;59081;42.706;23.306;2023-03-21T06:09:27;94789.84;;;8.39;61.64
43934;BME280;59081;42.706;23.306;2023-03-21T06:12:01;94853.94;;;8.78;61.23
43934;BME280;59081;42.706;23.306;2023-03-21T06:14:30;94823.41;;;8.76;60.77
43934;BME280;59081;42.706;23.306;2023-03-21T06:17:13;95044.81;;;10.46;60.48
43934;BME280;59081;42.706;23.306;2023-03-21T06:19:47;94983.66;;;10.26;59.78
43934;BME280;59081;42.706;23.306;2023-03-21T06:22:14;94827.84;;;9.27;59.26
43934;BME280;59081;42.706;23.306;2023-03-21T06:24:42;94970.81;;;10.36;59.45
43934;BME280;59081;42.706;23.306;2023-03-21T06:27:10;94912.50;;;10.12;59.03
43934;BME280;59081;42.706;23.306;2023-03-21T06:29:38;94982.25;;;10.47;59.06
43934;BME280;59081;42.706;23.306;2023-03-21T06:32:04;94861.88;;;9.84;59.11
43934;BME280;59081;42.706;23.306;2023-03-21T06:34:37;94917.38;;;10.33;57.98
43934;BME280;59081;42.706;23.306;2023-03-21T06:37:08;94985.81;;;10.95;57.89
43934;BME280;59081;42.706;23.306;2023-03-21T06:39:40;94991.13;;;11.02;57.53
43934;BME280;59081;42.706;23.306;2023-03-21T06:42:12;94842.19;;;9.98;57.00
43934;BME280;59081;42.706;23.306;2023-03-21T06:44:43;94795.66;;;9.78;56.56
43934;BME280;59081;42.706;23.306;2023-03-21T06:47:19;94860.38;;;10.21;56.45
43934;BME280;59081;42.706;23.306;2023-03-21T06:50:11;94858.44;;;10.43;55.56
43934;BME280;59081;42.706;23.306;2023-03-21T06:52:39;95052.34;;;11.78;55.32
43934;BME280;59081;42.706;23.306;2023-03-21T06:55:11;95056.53;;;11.83;55.56
43934;BME280;59081;42.706;23.306;2023-03-21T06:57:46;94933.47;;;10.95;55.18
43934;BME280;59081;42.706;23.306;2023-03-21T07:00:23;94942.72;;;11.01;55.93
43934;BME280;59081;42.706;23.306;2023-03-21T07:02:57;94886.72;;;10.69;55.22
43934;BME280;59081;42.706;23.306;2023-03-21T07:05:30;94913.94;;;11.02;54.81
43934;BME280;59081;42.706;23.306;2023-03-21T07:08:01;95053.66;;;12.08;54.37
43934;BME280;59081;42.706;23.306;2023-03-21T07:10:37;94850.63;;;10.76;53.98
43934;BME280;59081;42.706;23.306;2023-03-21T07:13:14;94854.75;;;10.72;54.28
43934;BME280;59081;42.706;23.306;2023-03-21T07:15:51;94937.56;;;11.46;54.14
43934;BME280;59081;42.706;23.306;2023-03-21T07:21:09;95055.75;;;12.26;53.52
43934;BME280;59081;42.706;23.306;2023-03-21T07:23:41;94832.97;;;10.87;53.63
43934;BME280;59081;42.706;23.306;2023-03-21T07:26:11;94847.59;;;11.18;52.96
43934;BME280;59081;42.706;23.306;2023-03-21T07:28:54;94871.78;;;11.36;52.25
43934;BME280;59081;42.706;23.306;2023-03-21T07:31:44;94836.19;;;11.29;51.96
43934;BME280;59081;42.706;23.306;2023-03-21T07:37:49;94839.56;;;11.55;50.56
43934;BME280;59081;42.706;23.306;2023-03-21T07:43:19;94848.41;;;11.49;51.14
43934;BME280;59081;42.706;23.306;2023-03-21T07:46:00;94831.88;;;11.28;51.09
43934;BME280;59081;42.706;23.306;2023-03-21T07:48:32;94844.44;;;11.50;50.38
43934;BME280;59081;42.706;23.306;2023-03-21T07:51:01;94941.22;;;12.40;50.21
43934;BME280;59081;42.706;23.306;2023-03-21T07:56:03;94940.38;;;12.61;48.86
43934;BME280;59081;42.706;23.306;2023-03-21T07:58:31;94832.50;;;12.15;48.63
43934;BME280;59081;42.706;23.306;2023-03-21T08:00:59;94872.16;;;12.40;48.38
43934;BME280;59081;42.706;23.306;2023-03-21T08:03:25;94933.06;;;12.95;48.61
43934;BME280;59081;42.706;23.306;2023-03-21T08:06:04;94849.16;;;12.52;48.36
43934;BME280;59081;42.706;23.306;2023-03-21T08:08:52;94840.22;;;12.39;47.38
43934;BME280;59081;42.706;23.306;2023-03-21T08:11:25;94917.13;;;12.99;46.90
43934;BME280;59081;42.706;23.306;2023-03-21T08:14:04;94809.22;;;12.35;46.68
43934;BME280;59081;42.706;23.306;2023-03-21T08:16:33;94855.31;;;12.56;47.00
43934;BME280;59081;42.706;23.306;2023-03-21T08:19:03;94838.09;;;12.52;46.78
43934;BME280;59081;42.706;23.306;2023-03-21T08:21:57;95053.97;;;14.07;46.93
43934;BME280;59081;42.706;23.306;2023-03-21T08:27:02;94947.59;;;13.44;46.74
43934;BME280;59081;42.706;23.306;2023-03-21T08:29:32;94820.03;;;12.60;46.20
43934;BME280;59081;42.706;23.306;2023-03-21T08:32:08;94963.09;;;13.69;46.23
43934;BME280;59081;42.706;23.306;2023-03-21T08:34:56;94822.34;;;12.89;46.25
43934;BME280;59081;42.706;23.306;2023-03-21T08:37:23;94993.03;;;14.16;45.93
43934;BME280;59081;42.706;23.306;2023-03-21T08:39:49;94877.19;;;13.27;46.09
43934;BME280;59081;42.706;23.306;2023-03-21T08:42:18;94832.66;;;13.16;45.86
43934;BME280;59081;42.706;23.306;2023-03-21T08:44:53;94813.56;;;13.09;45.71
43934;BME280;59081;42.706;23.306;2023-03-21T08:47:27;95017.72;;;14.56;45.47
43934;BME280;59081;42.706;23.306;2023-03-21T08:50:00;94846.78;;;13.27;46.41
43934;BME280;59081;42.706;23.306;2023-03-21T08:52:32;94846.00;;;13.27;46.72
43934;BME280;59081;42.706;23.306;2023-03-21T08:55:02;94994.88;;;14.19;46.59
43934;BME280;59081;42.706;23.306;2023-03-21T08:57:31;94834.91;;;13.36;46.21
43934;BME280;59081;42.706;23.306;2023-03-21T08:59:57;94931.69;;;14.00;46.13
43934;BME280;59081;42.706;23.306;2023-03-21T09:02:26;94946.72;;;14.17;44.89
43934;BME280;59081;42.706;23.306;2023-03-21T09:04:52;94887.28;;;13.85;44.71
43934;BME280;59081;42.706;23.306;2023-03-21T09:07:30;94822.63;;;13.46;45.35
43934;BME280;59081;42.706;23.306;2023-03-21T09:10:10;94816.75;;;13.53;44.87
43934;BME280;59081;42.706;23.306;2023-03-21T09:12:47;94832.88;;;13.64;45.34
43934;BME280;59081;42.706;23.306;2023-03-21T09:15:15;94807.66;;;13.62;44.88
43934;BME280;59081;42.706;23.306;2023-03-21T09:24:05;94788.31;;;13.62;45.26
43934;BME280;59081;42.706;23.306;2023-03-21T09:26:33;94821.09;;;13.96;45.24
43934;BME280;59081;42.706;23.306;2023-03-21T09:29:02;94811.84;;;13.99;44.85
43934;BME280;59081;42.706;23.306;2023-03-21T09:31:33;94917.53;;;14.82;44.72
43934;BME280;59081;42.706;23.306;2023-03-21T09:34:02;94804.31;;;14.23;43.74
43934;BME280;59081;42.706;23.306;2023-03-21T09:36:31;94794.16;;;14.29;44.17
43934;BME280;59081;42.706;23.306;2023-03-21T09:38:59;94871.75;;;14.86;42.96
43934;BME280;59081;42.706;23.306;2023-03-21T09:47:26;94868.63;;;14.70;42.69
43934;BME280;59081;42.706;23.306;2023-03-21T09:50:19;94969.47;;;15.53;43.39
43934;BME280;59081;42.706;23.306;2023-03-21T09:52:59;94772.69;;;14.15;43.65
43934;BME280;59081;42.706;23.306;2023-03-21T09:55:29;94781.28;;;14.17;43.96
43934;BME280;59081;42.706;23.306;2023-03-21T09:58:27;94991.09;;;15.73;43.62
43934;BME280;59081;42.706;23.306;2023-03-21T10:01:08;94912.50;;;15.19;44.01
43934;BME280;59081;42.706;23.306;2023-03-21T10:03:36;94985.00;;;15.59;44.58
43934;BME280;59081;42.706;23.306;2023-03-21T10:06:13;94784.69;;;14.45;44.00
43934;BME280;59081;42.706;23.306;2023-03-21T10:08:44;94854.97;;;15.05;43.75
43934;BME280;59081;42.706;23.306;2023-03-21T10:11:47;94966.03;;;16.11;42.71
43934;BME280;59081;42.706;23.306;2023-03-21T10:14:20;94965.66;;;16.33;41.37
43934;BME280;59081;42.706;23.306;2023-03-21T10:16:57;94748.59;;;15.08;41.48
43934;BME280;59081;42.706;23.306;2023-03-21T10:19:26;94772.75;;;15.46;40.95
43934;BME280;59081;42.706;23.306;2023-03-21T10:21:52;94728.72;;;15.53;40.89
43934;BME280;59081;42.706;23.306;2023-03-21T10:24:20;94844.16;;;16.54;39.84
43934;BME280;59081;42.706;23.306;2023-03-21T10:26:48;94765.38;;;16.22;38.82
43934;BME280;59081;42.706;23.306;2023-03-21T10:29:16;94756.38;;;16.47;38.32
43934;BME280;59081;42.706;23.306;2023-03-21T10:31:45;94878.25;;;17.65;36.57
43934;BME280;59081;42.706;23.306;2023-03-21T10:34:33;94773.56;;;17.32;35.15
43934;BME280;59081;42.706;23.306;2023-03-21T10:37:02;94856.97;;;17.93;34.58
43934;BME280;59081;42.706;23.306;2023-03-21T10:39:42;94807.25;;;17.60;34.34
43934;BME280;59081;42.706;23.306;2023-03-21T10:42:21;94747.53;;;16.28;34.83
43934;BME280;59081;42.706;23.306;2023-03-21T10:44:53;94747.50;;;16.63;33.95
43934;BME280;59081;42.706;23.306;2023-03-21T10:47:24;94767.00;;;16.49;34.97
43934;BME280;59081;42.706;23.306;2023-03-21T10:49:50;94790.06;;;16.90;34.57
43934;BME280;59081;42.706;23.306;2023-03-21T10:52:19;94764.34;;;16.95;33.97
43934;BME280;59081;42.706;23.306;2023-03-21T10:54:45;94866.81;;;17.89;33.58
43934;BME280;59081;42.706;23.306;2023-03-21T10:57:20;94746.72;;;17.29;33.88
43934;BME280;59081;42.706;23.306;2023-03-21T10:59:57;94944.19;;;18.25;34.50
43934;BME280;59081;42.706;23.306;2023-03-21T11:04:52;94838.84;;;17.78;33.84
43934;BME280;59081;42.706;23.306;2023-03-21T11:07:21;94740.22;;;17.38;32.79
43934;BME280;59081;42.706;23.306;2023-03-21T11:09:56;94722.94;;;16.82;32.98
43934;BME280;59081;42.706;23.306;2023-03-21T11:12:32;94844.97;;;17.82;33.36
43934;BME280;59081;42.706;23.306;2023-03-21T11:15:28;94713.97;;;17.19;33.24
43934;BME280;59081;42.706;23.306;2023-03-21T11:17:56;94870.56;;;18.43;33.20
43934;BME280;59081;42.706;23.306;2023-03-21T11:20:28;94836.53;;;18.33;32.87
43934;BME280;59081;42.706;23.306;2023-03-21T11:22:55;94829.44;;;18.32;32.14
43934;BME280;59081;42.706;23.306;2023-03-21T11:25:50;94704.31;;;17.71;32.33
43934;BME280;59081;42.706;23.306;2023-03-21T11:28:24;94717.84;;;17.84;32.57
43934;BME280;59081;42.706;23.306;2023-03-21T11:33:19;94895.84;;;19.02;32.92
43934;BME280;59081;42.706;23.306;2023-03-21T11:36:00;94894.63;;;19.15;32.55
43934;BME280;59081;42.706;23.306;2023-03-21T11:38:29;94878.34;;;18.65;33.09
43934;BME280;59081;42.706;23.306;2023-03-21T11:41:01;94676.00;;;16.90;34.12
43934;BME280;59081;42.706;23.306;2023-03-21T11:43:33;94667.00;;;17.32;33.79
43934;BME280;59081;42.706;23.306;2023-03-21T11:46:08;94691.00;;;17.24;33.16
43934;BME280;59081;42.706;23.306;2023-03-21T11:48:42;94679.94;;;17.29;33.83
43934;BME280;59081;42.706;23.306;2023-03-21T12:00:03;94772.72;;;18.47;33.49
43934;BME280;59081;42.706;23.306;2023-03-21T12:05:26;94641.16;;;17.57;33.14
43934;BME280;59081;42.706;23.306;2023-03-21T12:10:53;94628.88;;;17.07;31.66
43934;BME280;59081;42.706;23.306;2023-03-21T12:16:40;94842.50;;;18.52;33.51
43934;BME280;59081;42.706;23.306;2023-03-21T12:19:44;94645.22;;;17.25;34.15
43934;BME280;59081;42.706;23.306;2023-03-21T12:22:40;94819.50;;;18.63;32.63
43934;BME280;59081;42.706;23.306;2023-03-21T12:25:16;94640.66;;;16.96;31.92
43934;BME280;59081;42.706;23.306;2023-03-21T12:28:09;94838.88;;;18.09;31.92
43934;BME280;59081;42.706;23.306;2023-03-21T12:33:47;94767.78;;;17.10;33.56
43934;BME280;59081;42.706;23.306;2023-03-21T12:36:51;94820.53;;;17.65;33.52
43934;BME280;59081;42.706;23.306;2023-03-21T12:39:29;94639.69;;;16.53;33.84
43934;BME280;59081;42.706;23.306;2023-03-21T12:42:18;94814.50;;;18.04;33.66
43934;BME280;59081;42.706;23.306;2023-03-21T12:45:14;94651.63;;;16.79;33.77
43934;BME280;59081;42.706;23.306;2023-03-21T12:47:49;94724.69;;;17.26;33.20
43934;BME280;59081;42.706;23.306;2023-03-21T12:50:30;94596.44;;;16.52;32.94
43934;BME280;59081;42.706;23.306;2023-03-21T12:56:09;94761.44;;;17.61;32.30
43934;BME280;59081;42.706;23.306;2023-03-21T12:58:55;94625.50;;;16.71;33.05
43934;BME280;59081;42.706;23.306;2023-03-21T13:01:28;94583.53;;;16.49;33.22
43934;BME280;59081;42.706;23.306;2023-03-21T13:06:32;94586.25;;;16.43;34.30
43934;BME280;59081;42.706;23.306;2023-03-21T13:12:08;94679.94;;;17.03;33.82
43934;BME280;59081;42.706;23.306;2023-03-21T13:14:44;94596.03;;;16.59;33.60
43934;BME280;59081;42.706;23.306;2023-03-21T13:17:33;94609.66;;;16.57;33.70
43934;BME280;59081;42.706;23.306;2023-03-21T13:20:21;94777.53;;;17.46;34.33
43934;BME280;59081;42.706;23.306;2023-03-21T13:22:50;94547.84;;;15.75;34.55
43934;BME280;59081;42.706;23.306;2023-03-21T13:25:21;94554.56;;;15.69;35.13
43934;BME280;59081;42.706;23.306;2023-03-21T13:28:03;94515.34;;;15.81;34.84
43934;BME280;59081;42.706;23.306;2023-03-21T13:30:30;94581.28;;;16.27;34.63
43934;BME280;59081;42.706;23.306;2023-03-21T13:33:14;94592.16;;;16.30;34.72
43934;BME280;59081;42.706;23.306;2023-03-21T13:36:03;94580.25;;;16.24;35.54
43934;BME280;59081;42.706;23.306;2023-03-21T13:38:35;94600.94;;;16.23;35.80
43934;BME280;59081;42.706;23.306;2023-03-21T13:41:30;94581.09;;;16.10;36.10
43934;BME280;59081;42.706;23.306;2023-03-21T13:44:07;94762.03;;;17.65;35.74
43934;BME280;59081;42.706;23.306;2023-03-21T13:47:07;94735.34;;;17.59;36.03
43934;BME280;59081;42.706;23.306;2023-03-21T13:55:28;94565.56;;;16.70;35.63
43934;BME280;59081;42.706;23.306;2023-03-21T13:57:55;94666.69;;;16.93;35.92
43934;BME280;59081;42.706;23.306;2023-03-21T14:00:28;94705.31;;;17.11;36.06
43934;BME280;59081;42.706;23.306;2023-03-21T14:03:00;94683.97;;;17.02;36.41
43934;BME280;59081;42.706;23.306;2023-03-21T14:05:33;94620.88;;;16.42;36.69
43934;BME280;59081;42.706;23.306;2023-03-21T14:08:05;94564.97;;;15.94;37.25
43934;BME280;59081;42.706;23.306;2023-03-21T14:10:46;94522.25;;;15.51;38.04
43934;BME280;59081;42.706;23.306;2023-03-21T14:13:18;94747.16;;;16.96;38.60
43934;BME280;59081;42.706;23.306;2023-03-21T14:15:51;94682.50;;;16.41;38.54
43934;BME280;59081;42.706;23.306;2023-03-21T14:18:25;94704.25;;;16.83;38.48
43934;BME280;59081;42.706;23.306;2023-03-21T14:20:53;94607.59;;;16.11;38.19
43934;BME280;59081;42.706;23.306;2023-03-21T14:23:25;94538.19;;;15.71;38.37
43934;BME280;59081;42.706;23.306;2023-03-21T14:31:17;94701.03;;;16.49;38.94
43934;BME280;59081;42.706;23.306;2023-03-21T14:33:57;94533.63;;;15.32;38.95
43934;BME280;59081;42.706;23.306;2023-03-21T14:36:28;94559.88;;;15.52;39.17
43934;BME280;59081;42.706;23.306;2023-03-21T14:39:14;94740.50;;;16.68;39.08
43934;BME280;59081;42.706;23.306;2023-03-21T14:41:51;94557.69;;;15.41;38.66
43934;BME280;59081;42.706;23.306;2023-03-21T14:44:52;94586.38;;;15.68;38.53
43934;BME280;59081;42.706;23.306;2023-03-21T14:47:31;94569.09;;;15.58;39.15
43934;BME280;59081;42.706;23.306;2023-03-21T14:49:58;94746.94;;;16.59;40.94
43934;BME280;59081;42.706;23.306;2023-03-21T14:52:35;94624.69;;;15.49;42.67
43934;BME280;59081;42.706;23.306;2023-03-21T14:55:15;94523.34;;;14.69;43.71
43934;BME280;59081;42.706;23.306;2023-03-21T14:57:41;94626.91;;;15.30;44.48
43934;BME280;59081;42.706;23.306;2023-03-21T15:00:13;94755.44;;;16.15;44.88
43934;BME280;59081;42.706;23.306;2023-03-21T15:02:43;94719.25;;;15.75;45.82
43934;BME280;59081;42.706;23.306;2023-03-21T15:05:28;94764.91;;;15.74;45.89
43934;BME280;59081;42.706;23.306;2023-03-21T15:08:06;94573.09;;;14.34;46.21
43934;BME280;59081;42.706;23.306;2023-03-21T15:10:37;94568.78;;;14.18;45.79
43934;BME280;59081;42.706;23.306;2023-03-21T15:13:25;94764.41;;;15.31;47.00